createdAt,value
2023-01-10T00:00:03.923Z,4.20
2023-01-10T00:04:08.020Z,4.20
2023-01-10T00:08:10.021Z,4.10
2023-01-10T00:12:22.871Z,4.00
2023-01-10T00:16:23.575Z,3.90
2023-01-10T00:20:26.148Z,3.90
2023-01-10T00:24:26.335Z,3.90
2023-01-10T00:28:26.283Z,3.90
2023-01-10T00:32:26.285Z,3.90
2023-01-10T00:36:28.867Z,3.90
2023-01-10T00:40:28.923Z,4.00
2023-01-10T00:44:26.890Z,4.00
2023-01-10T00:48:27.272Z,4.00
2023-01-10T00:52:29.806Z,4.00
2023-01-10T00:56:30.033Z,4.00
2023-01-10T01:00:30.377Z,4.00
2023-01-10T01:04:34.103Z,4.10
2023-01-10T01:08:37.069Z,4.10
2023-01-10T01:12:37.154Z,4.10
2023-01-10T01:16:37.268Z,4.10
2023-01-10T01:20:37.529Z,4.10
2023-01-10T01:24:40.117Z,4.10
2023-01-10T01:28:40.732Z,4.10
2023-01-10T01:32:41.268Z,4.20
2023-01-10T01:36:41.430Z,4.20
2023-01-10T01:40:45.100Z,4.20
2023-01-10T01:44:45.160Z,4.20
2023-01-10T01:48:47.167Z,4.10
2023-01-10T01:52:48.141Z,4.20
2023-01-10T01:56:56.532Z,4.20
2023-01-10T02:00:58.590Z,4.10
2023-01-10T02:05:05.006Z,4.20
2023-01-10T02:09:15.529Z,4.10
2023-01-10T02:13:22.106Z,4.20
2023-01-10T02:17:22.121Z,4.30
2023-01-10T02:22:13.576Z,4.30
2023-01-10T02:26:50.007Z,4.30
2023-01-10T02:31:47.788Z,4.30
2023-01-10T02:36:22.933Z,4.30
2023-01-10T02:40:31.963Z,4.20
2023-01-10T02:44:40.386Z,4.20
2023-01-10T02:48:40.496Z,4.20
2023-01-10T02:52:43.179Z,4.20
2023-01-10T02:57:18.389Z,4.20
2023-01-10T03:01:28.876Z,4.20
2023-01-10T03:05:44.868Z,4.20
2023-01-10T03:09:59.344Z,4.30
2023-01-10T03:14:04.052Z,4.30
2023-01-10T03:18:11.123Z,4.30
2023-01-10T03:22:14.032Z,4.30
2023-01-10T03:26:20.396Z,4.30
2023-01-10T03:30:31.124Z,4.30
2023-01-10T03:34:31.550Z,4.30
2023-01-10T03:38:44.659Z,4.30
2023-01-10T03:43:09.391Z,4.30
2023-01-10T03:47:15.275Z,4.20
2023-01-10T03:51:17.085Z,4.30
2023-01-10T03:55:23.506Z,4.20
2023-01-10T03:59:30.180Z,4.30
2023-01-10T04:03:30.255Z,4.30
2023-01-10T04:07:30.473Z,4.30
2023-01-10T04:11:30.514Z,4.30
2023-01-10T04:15:33.916Z,4.30
2023-01-10T04:19:34.305Z,4.30
2023-01-10T04:23:34.434Z,4.30
2023-01-10T04:27:34.461Z,4.40
2023-01-10T04:31:37.580Z,4.30
2023-01-10T04:35:37.791Z,4.30
2023-01-10T04:39:37.956Z,4.30
2023-01-10T04:43:38.086Z,4.30
2023-01-10T04:47:40.753Z,4.30
2023-01-10T04:51:41.090Z,4.30
2023-01-10T04:55:41.103Z,4.40
2023-01-10T04:59:41.221Z,4.40
2023-01-10T05:03:44.122Z,4.30
2023-01-10T05:07:44.732Z,4.30
2023-01-10T05:11:44.868Z,4.30
2023-01-10T05:15:44.919Z,4.20
2023-01-10T05:19:47.606Z,4.20
2023-01-10T05:23:47.725Z,4.10
2023-01-10T05:27:47.798Z,4.00
2023-01-10T05:31:47.880Z,4.00
2023-01-10T05:35:50.662Z,3.90
2023-01-10T05:39:50.904Z,3.90
2023-01-10T05:43:50.929Z,3.90
2023-01-10T05:47:51.058Z,3.90
2023-01-10T05:51:53.664Z,4.00
2023-01-10T05:55:59.463Z,4.00
2023-01-10T05:59:59.635Z,4.00
2023-01-10T06:04:00.887Z,4.00
2023-01-10T06:08:03.624Z,4.00
2023-01-10T06:12:03.764Z,4.00
2023-01-10T06:16:04.075Z,4.10
2023-01-10T06:20:05.594Z,4.00
2023-01-10T06:24:09.667Z,4.00
2023-01-10T06:28:10.365Z,4.00
2023-01-10T06:32:10.396Z,4.00
2023-01-10T06:36:11.757Z,3.90
2023-01-10T06:40:15.449Z,3.80
2023-01-10T06:44:15.531Z,3.90
2023-01-10T06:48:15.590Z,3.90
2023-01-10T06:52:15.805Z,3.90
2023-01-10T06:56:18.556Z,3.90
2023-01-10T07:00:20.549Z,3.90
2023-01-10T07:04:20.552Z,3.90
2023-01-10T07:08:20.630Z,3.90
2023-01-10T07:12:23.345Z,3.90
2023-01-10T07:16:23.575Z,3.80
2023-01-10T07:20:23.767Z,3.90
2023-01-10T07:24:23.953Z,3.90
2023-01-10T07:28:26.995Z,4.00
2023-01-10T07:32:27.298Z,4.00
2023-01-10T07:36:27.469Z,4.00
2023-01-10T07:40:27.963Z,4.00
2023-01-10T07:44:30.572Z,4.00
2023-01-10T07:48:30.851Z,4.00
2023-01-10T07:52:30.886Z,4.00
2023-01-10T07:56:31.011Z,4.00
2023-01-10T08:00:33.677Z,4.00
2023-01-10T08:04:33.850Z,4.00
2023-01-10T08:08:35.969Z,4.00
2023-01-10T08:12:36.463Z,4.00
2023-01-10T08:16:39.152Z,4.00
2023-01-10T08:20:39.315Z,4.00
2023-01-10T08:24:39.508Z,4.00
2023-01-10T08:28:39.626Z,4.00
2023-01-10T08:32:42.294Z,4.10
2023-01-10T08:36:42.346Z,4.10
2023-01-10T08:40:42.389Z,4.10
2023-01-10T08:44:42.547Z,4.20
2023-01-10T08:48:45.239Z,4.10
2023-01-10T08:52:45.279Z,4.20
2023-01-10T08:56:45.280Z,4.20
2023-01-10T09:00:45.364Z,4.20
2023-01-10T09:04:48.033Z,4.20
2023-01-10T09:08:48.275Z,4.20
2023-01-10T09:12:57.437Z,4.20
2023-01-10T09:16:57.692Z,4.20
2023-01-10T09:21:00.582Z,4.20
2023-01-10T09:25:00.679Z,4.20
2023-01-10T09:29:00.715Z,4.20
2023-01-10T09:33:02.177Z,4.10
2023-01-10T09:37:04.855Z,4.10
2023-01-10T09:41:31.246Z,4.10
2023-01-10T09:45:47.342Z,4.10
2023-01-10T09:49:58.886Z,4.20
2023-01-10T09:54:12.482Z,4.30
2023-01-10T09:58:18.479Z,4.30
2023-01-10T10:02:29.441Z,4.40
2023-01-10T10:06:29.540Z,4.50
2023-01-10T10:10:43.505Z,4.50
2023-01-10T10:15:10.530Z,4.60
2023-01-10T10:19:26.020Z,4.60
2023-01-10T10:24:13.608Z,4.70
2023-01-10T10:28:46.633Z,4.80
2023-01-10T10:33:12.312Z,4.80
2023-01-10T10:37:19.724Z,4.70
2023-01-10T10:41:33.162Z,4.70
2023-01-10T10:45:44.405Z,4.90
2023-01-10T10:49:52.294Z,4.90
2023-01-10T10:53:52.374Z,5.00
2023-01-10T10:58:00.474Z,5.00
2023-01-10T11:02:04.015Z,5.10
2023-01-10T11:06:04.918Z,5.20
2023-01-10T11:10:21.914Z,5.10
2023-01-10T11:14:46.907Z,5.00
2023-01-10T11:19:10.745Z,4.90
2023-01-10T11:23:10.877Z,4.80
2023-01-10T11:27:21.775Z,4.90
2023-01-10T11:31:30.873Z,4.80
2023-01-10T11:35:38.127Z,4.90
2023-01-10T11:39:38.396Z,5.00
2023-01-10T11:43:41.829Z,5.00
2023-01-10T11:47:45.922Z,5.00
2023-01-10T11:51:54.462Z,5.10
2023-01-10T11:55:55.691Z,5.00
2023-01-10T11:59:59.166Z,5.10
2023-01-10T12:04:00.732Z,5.20
2023-01-10T12:08:10.695Z,5.30
2023-01-10T12:12:32.563Z,5.50
2023-01-10T12:16:34.698Z,5.70
2023-01-10T12:20:47.777Z,5.80
2023-01-10T12:24:55.898Z,6.00
2023-01-10T12:29:01.772Z,6.00
2023-01-10T12:33:07.280Z,6.10
2023-01-10T12:37:19.892Z,5.90
2023-01-10T12:41:45.256Z,5.80
2023-01-10T12:45:55.967Z,5.60
2023-01-10T12:50:02.097Z,5.40
2023-01-10T12:54:08.275Z,5.40
2023-01-10T12:58:23.198Z,5.30
2023-01-10T13:02:30.559Z,5.40
2023-01-10T13:06:36.435Z,5.40
2023-01-10T13:10:40.333Z,5.50
2023-01-10T13:14:54.444Z,5.50
2023-01-10T13:19:09.112Z,5.50
2023-01-10T13:23:30.556Z,5.50
2023-01-10T13:27:35.939Z,5.30
2023-01-10T13:31:38.853Z,5.20
2023-01-10T13:35:45.729Z,5.20
2023-01-10T13:39:57.539Z,5.10
2023-01-10T13:44:12.145Z,5.00
2023-01-10T13:48:31.335Z,5.00
2023-01-10T13:52:36.115Z,4.90
2023-01-10T13:56:40.899Z,4.90
2023-01-10T14:01:06.789Z,4.90
2023-01-10T14:05:19.076Z,4.80
2023-01-10T14:09:44.822Z,4.80
2023-01-10T14:13:54.042Z,4.80
2023-01-10T14:18:03.202Z,4.80
2023-01-10T14:22:07.265Z,4.70
2023-01-10T14:26:09.311Z,4.70
2023-01-10T14:30:18.961Z,4.50
2023-01-10T14:34:26.561Z,4.60
2023-01-10T14:38:33.745Z,4.60
2023-01-10T14:42:34.356Z,4.70
2023-01-10T14:46:47.152Z,4.70
2023-01-10T14:50:47.467Z,4.60
2023-01-10T14:54:51.444Z,4.50
2023-01-10T14:58:51.635Z,4.50
2023-01-10T15:02:53.440Z,4.50
2023-01-10T15:07:00.139Z,4.60
2023-01-10T15:11:08.164Z,4.50
2023-01-10T15:15:16.202Z,4.50
2023-01-10T15:19:22.727Z,4.40
2023-01-10T15:23:27.185Z,4.40
2023-01-10T15:27:31.791Z,4.30
2023-01-10T15:31:33.616Z,4.30
2023-01-10T15:35:36.897Z,4.30
2023-01-10T15:39:42.127Z,4.30
2023-01-10T15:43:45.266Z,4.30
2023-01-10T15:48:03.225Z,4.30
2023-01-10T15:52:03.769Z,4.30
2023-01-10T15:56:19.423Z,4.30
2023-01-10T16:00:23.318Z,4.30
2023-01-10T16:04:23.758Z,4.30
2023-01-10T16:08:29.169Z,4.30
2023-01-10T16:12:48.959Z,4.30
2023-01-10T16:16:51.599Z,4.30
2023-01-10T16:20:54.999Z,4.40
2023-01-10T16:24:55.247Z,4.40
2023-01-10T16:28:55.527Z,4.30
2023-01-10T16:33:00.057Z,4.30
2023-01-10T16:37:00.225Z,4.20
2023-01-10T16:41:23.059Z,4.10
2023-01-10T16:45:23.128Z,4.10
2023-01-10T16:49:26.419Z,4.10
2023-01-10T16:53:26.727Z,4.10
2023-01-10T16:57:26.957Z,4.10
2023-01-10T17:01:32.207Z,4.10
2023-01-10T17:05:38.435Z,4.10
2023-01-10T17:09:39.729Z,4.10
2023-01-10T17:13:45.530Z,4.00
2023-01-10T17:17:46.839Z,4.00
2023-01-10T17:21:49.608Z,4.00
2023-01-10T17:25:50.750Z,3.90
2023-01-10T17:29:51.724Z,3.90
2023-01-10T17:33:51.913Z,3.80
2023-01-10T17:37:56.833Z,3.70
2023-01-10T17:41:57.887Z,3.50
2023-01-10T17:46:00.181Z,3.40
2023-01-10T17:50:00.539Z,3.40
2023-01-10T17:54:03.405Z,3.20
2023-01-10T17:58:03.804Z,3.10
2023-01-10T18:02:04.071Z,3.00
2023-01-10T18:06:07.670Z,2.90
2023-01-10T18:10:12.410Z,2.90
2023-01-10T18:14:27.678Z,2.70
2023-01-10T18:18:28.110Z,2.60
2023-01-10T18:22:43.598Z,2.50
2023-01-10T18:26:46.580Z,2.40
2023-01-10T18:30:46.810Z,2.50
2023-01-10T18:34:47.242Z,2.50
2023-01-10T18:38:48.775Z,2.50
2023-01-10T18:42:55.083Z,2.50
2023-01-10T18:46:55.218Z,2.50
2023-01-10T18:50:56.572Z,2.50
2023-01-10T18:54:57.555Z,2.50
2023-01-10T18:59:01.791Z,2.50
2023-01-10T19:03:02.430Z,2.50
2023-01-10T19:07:02.525Z,2.40
2023-01-10T19:11:13.315Z,2.40
2023-01-10T19:15:17.157Z,2.40
2023-01-10T19:19:17.300Z,2.30
2023-01-10T19:23:17.446Z,2.30
2023-01-10T19:27:18.424Z,2.20
2023-01-10T19:31:24.228Z,2.20
2023-01-10T19:35:24.391Z,2.20
2023-01-10T19:39:24.676Z,2.20
2023-01-10T19:43:26.012Z,2.20
2023-01-10T19:47:29.038Z,2.20
2023-01-10T19:51:29.116Z,2.20
2023-01-10T19:55:29.805Z,2.10
2023-01-10T19:59:31.727Z,2.10
2023-01-10T20:03:34.763Z,2.10
2023-01-10T20:07:34.879Z,2.10
2023-01-10T20:11:41.917Z,2.10
2023-01-10T20:15:42.004Z,2.00
2023-01-10T20:19:44.690Z,2.00
2023-01-10T20:23:45.801Z,2.00
2023-01-10T20:27:46.919Z,1.90
2023-01-10T20:31:52.702Z,1.80
2023-01-10T20:36:04.627Z,1.80
2023-01-10T20:40:05.292Z,1.80
2023-01-10T20:44:05.713Z,1.80
2023-01-10T20:48:05.786Z,1.70
2023-01-10T20:52:08.457Z,1.70
2023-01-10T20:56:12.399Z,1.70
2023-01-10T21:00:15.766Z,1.70
2023-01-10T21:04:15.941Z,1.70
2023-01-10T21:08:18.637Z,1.70
2023-01-10T21:12:23.237Z,1.70
2023-01-10T21:16:25.619Z,1.70
2023-01-10T21:20:28.597Z,1.80
2023-01-10T21:24:31.544Z,1.80
2023-01-10T21:28:32.429Z,1.80
2023-01-10T21:32:32.642Z,1.80
2023-01-10T21:36:32.719Z,1.80
2023-01-10T21:40:37.056Z,1.80
2023-01-10T21:44:37.305Z,1.80
2023-01-10T21:48:37.405Z,1.80
2023-01-10T21:52:37.831Z,1.80
2023-01-10T21:56:40.534Z,1.80
2023-01-10T22:00:40.774Z,1.80
2023-01-10T22:04:41.039Z,1.80
2023-01-10T22:08:41.084Z,1.80
2023-01-10T22:12:43.730Z,1.90
2023-01-10T22:16:43.846Z,1.90
2023-01-10T22:20:47.629Z,1.90
2023-01-10T22:24:48.760Z,1.80
2023-01-10T22:28:51.539Z,1.80
2023-01-10T22:32:51.698Z,1.70
2023-01-10T22:36:51.900Z,1.70
2023-01-10T22:40:51.951Z,1.70
2023-01-10T22:44:54.582Z,1.70
2023-01-10T22:48:55.567Z,1.70
2023-01-10T22:52:55.696Z,1.70
2023-01-10T22:56:55.775Z,1.60
2023-01-10T23:00:59.156Z,1.60
2023-01-10T23:04:59.231Z,1.60
2023-01-10T23:08:59.289Z,1.70
2023-01-10T23:13:01.101Z,1.70
2023-01-10T23:17:03.740Z,1.70
2023-01-10T23:21:05.110Z,1.70
2023-01-10T23:25:05.521Z,1.70
2023-01-10T23:29:05.587Z,1.70
2023-01-10T23:33:08.393Z,1.70
2023-01-10T23:37:08.774Z,1.70
2023-01-10T23:41:09.706Z,1.70
2023-01-10T23:45:12.262Z,1.70
2023-01-10T23:49:15.093Z,1.70
2023-01-10T23:53:15.224Z,1.70
2023-01-10T23:57:15.308Z,1.70
